Strona główna
METAR-TAF:

METAR-TAF

Lotnisko :

Port lotniczy Mauritius

Mauritius, Mauritius

Szerokość geograficzna: 20-26S, Długość geograficzna: 057-40E, wysokość: 55 m

Aktualna obserwacja pogody

Raport powstał 10 minut temu, godzina 19:00 UTC
Wiatr 6 kt od wschód
Temperatura 26°C
Wilgotność 74%
Ciśnienie 1014 hPa
Widzialność 10 km lub więcej
Przerywane chmury na wysokości 1800 ft

METAR: FIMP 201900Z 09006KT 9999 BKN018 26/21 Q1014

czas: 23:10 (19:10 UTC)

Prognoza

Raport powstał 2 godziny i 10 minut temu, godzina 17:00 UTC
Prognoza ważna od 20 godzina 18 UTC do 22 godzina 00 UTC
Wiatr 5 kt od wschodnio-południowy wschód
Widzialność 10 km lub więcej
Rozproszone chmury na wysokości 1700 ft
Przejściowo
od 20 godzina 18 UTC do 21 godzina 03 UTC
Widzialność: 7000 m
Mało chmury na wysokości 1000 ft
Rozproszone chmury na wysokości 1500 ft
Przerywane chmury na wysokości 5000 ft
słaby przelotny opad deszczu

TAF: FIMP 201700Z 2018/2200 12005KT 9999 SCT017 TEMPO 2018/2103 7000 -SHRA FEW010 SCT015 BKN050

Obserwacja i prognoza pogody dla ponad 4000 lotnisk (raport METAR i TAF).

Dostępne stacje oznaczono żółtymi i czerwonymi punktami na mapie.

Najedź kursorem aby zobaczyć nazwę stacji.

Kliknij aby zobaczyć obserwacje i prognozy pogody.

Aby zmienić mapę: kliknij na zielony przycisk z czarnym krzyżykiem, aby powiększyć; na zielony przycisk z myślnikiem, aby pomniejszyć; na zielone strzałki, aby przejść do map sąsiednich.


METAR-TAF: